sensor_id;sensor_type;location;lat;lon;timestamp;P1;durP1;ratioP1;P2;durP2;ratioP2
2053;SDS011;1032;52.542;13.440;2023-04-28T00:01:09;11.60;;;8.10;;
2053;SDS011;1032;52.542;13.440;2023-04-28T00:03:36;17.83;;;8.77;;
2053;SDS011;1032;52.542;13.440;2023-04-28T00:06:03;10.73;;;7.80;;
2053;SDS011;1032;52.542;13.440;2023-04-28T00:08:30;14.63;;;8.20;;
2053;SDS011;1032;52.542;13.440;2023-04-28T00:10:58;15.00;;;9.10;;
2053;SDS011;1032;52.542;13.440;2023-04-28T00:13:25;17.10;;;9.03;;
2053;SDS011;1032;52.542;13.440;2023-04-28T00:15:51;12.37;;;8.77;;
2053;SDS011;1032;52.542;13.440;2023-04-28T00:18:18;16.70;;;9.13;;
2053;SDS011;1032;52.542;13.440;2023-04-28T00:20:46;11.63;;;7.77;;
2053;SDS011;1032;52.542;13.440;2023-04-28T00:23:12;18.47;;;8.73;;
2053;SDS011;1032;52.542;13.440;2023-04-28T00:25:39;12.50;;;7.60;;
2053;SDS011;1032;52.542;13.440;2023-04-28T00:28:07;12.20;;;7.60;;
2053;SDS011;1032;52.542;13.440;2023-04-28T00:30:33;14.40;;;8.43;;
2053;SDS011;1032;52.542;13.440;2023-04-28T00:33:00;18.80;;;9.23;;
2053;SDS011;1032;52.542;13.440;2023-04-28T00:35:27;17.60;;;8.60;;
2053;SDS011;1032;52.542;13.440;2023-04-28T00:37:53;12.20;;;8.00;;
2053;SDS011;1032;52.542;13.440;2023-04-28T00:40:20;13.93;;;8.63;;
2053;SDS011;1032;52.542;13.440;2023-04-28T00:42:47;15.83;;;8.20;;
2053;SDS011;1032;52.542;13.440;2023-04-28T00:45:15;22.43;;;9.70;;
2053;SDS011;1032;52.542;13.440;2023-04-28T00:47:41;12.17;;;8.10;;
2053;SDS011;1032;52.542;13.440;2023-04-28T00:50:08;13.40;;;7.77;;
2053;SDS011;1032;52.542;13.440;2023-04-28T00:52:35;10.50;;;7.33;;
2053;SDS011;1032;52.542;13.440;2023-04-28T00:55:03;10.07;;;7.10;;
2053;SDS011;1032;52.542;13.440;2023-04-28T00:57:31;13.87;;;7.60;;
2053;SDS011;1032;52.542;13.440;2023-04-28T00:59:58;12.83;;;7.10;;
2053;SDS011;1032;52.542;13.440;2023-04-28T01:02:26;8.40;;;6.53;;
2053;SDS011;1032;52.542;13.440;2023-04-28T01:04:55;13.53;;;6.60;;
2053;SDS011;1032;52.542;13.440;2023-04-28T01:07:22;11.27;;;8.10;;
2053;SDS011;1032;52.542;13.440;2023-04-28T01:09:49;14.00;;;8.27;;
2053;SDS011;1032;52.542;13.440;2023-04-28T01:12:20;10.90;;;7.80;;
2053;SDS011;1032;52.542;13.440;2023-04-28T01:14:48;10.83;;;7.00;;
2053;SDS011;1032;52.542;13.440;2023-04-28T01:17:16;12.57;;;7.47;;
2053;SDS011;1032;52.542;13.440;2023-04-28T01:19:44;13.27;;;7.53;;
2053;SDS011;1032;52.542;13.440;2023-04-28T01:22:11;13.20;;;8.63;;
2053;SDS011;1032;52.542;13.440;2023-04-28T01:24:42;10.77;;;8.00;;
2053;SDS011;1032;52.542;13.440;2023-04-28T01:27:10;16.47;;;8.00;;
2053;SDS011;1032;52.542;13.440;2023-04-28T01:29:39;12.60;;;7.47;;
2053;SDS011;1032;52.542;13.440;2023-04-28T01:32:06;16.00;;;8.13;;
2053;SDS011;1032;52.542;13.440;2023-04-28T01:34:33;9.83;;;7.13;;
2053;SDS011;1032;52.542;13.440;2023-04-28T01:36:59;9.80;;;7.37;;
2053;SDS011;1032;52.542;13.440;2023-04-28T01:39:34;10.40;;;7.83;;
2053;SDS011;1032;52.542;13.440;2023-04-28T01:42:01;10.70;;;6.80;;
2053;SDS011;1032;52.542;13.440;2023-04-28T01:44:28;11.03;;;6.97;;
2053;SDS011;1032;52.542;13.440;2023-04-28T01:46:54;13.30;;;6.93;;
2053;SDS011;1032;52.542;13.440;2023-04-28T01:49:21;13.30;;;7.50;;
2053;SDS011;1032;52.542;13.440;2023-04-28T01:51:48;9.97;;;7.47;;
2053;SDS011;1032;52.542;13.440;2023-04-28T01:54:14;12.03;;;8.23;;
2053;SDS011;1032;52.542;13.440;2023-04-28T01:56:42;14.60;;;7.90;;
2053;SDS011;1032;52.542;13.440;2023-04-28T01:59:11;8.37;;;6.07;;
2053;SDS011;1032;52.542;13.440;2023-04-28T02:01:37;9.87;;;6.00;;
2053;SDS011;1032;52.542;13.440;2023-04-28T02:04:04;10.67;;;6.40;;
2053;SDS011;1032;52.542;13.440;2023-04-28T02:06:33;8.17;;;6.10;;
2053;SDS011;1032;52.542;13.440;2023-04-28T02:09:00;8.63;;;6.40;;
2053;SDS011;1032;52.542;13.440;2023-04-28T02:11:27;8.33;;;6.20;;
2053;SDS011;1032;52.542;13.440;2023-04-28T02:13:56;11.50;;;6.40;;
2053;SDS011;1032;52.542;13.440;2023-04-28T02:16:23;7.70;;;5.57;;
2053;SDS011;1032;52.542;13.440;2023-04-28T02:18:50;8.73;;;6.07;;
2053;SDS011;1032;52.542;13.440;2023-04-28T02:21:17;11.43;;;6.67;;
2053;SDS011;1032;52.542;13.440;2023-04-28T02:23:44;12.43;;;5.80;;
2053;SDS011;1032;52.542;13.440;2023-04-28T02:26:10;16.93;;;8.40;;
2053;SDS011;1032;52.542;13.440;2023-04-28T02:28:37;11.40;;;6.10;;
2053;SDS011;1032;52.542;13.440;2023-04-28T02:31:06;8.00;;;5.57;;
2053;SDS011;1032;52.542;13.440;2023-04-28T02:33:33;11.83;;;5.60;;
2053;SDS011;1032;52.542;13.440;2023-04-28T02:36:00;8.10;;;6.10;;
2053;SDS011;1032;52.542;13.440;2023-04-28T02:38:28;9.60;;;6.23;;
2053;SDS011;1032;52.542;13.440;2023-04-28T02:40:58;7.80;;;6.00;;
2053;SDS011;1032;52.542;13.440;2023-04-28T02:43:25;7.80;;;5.80;;
2053;SDS011;1032;52.542;13.440;2023-04-28T02:45:52;8.30;;;5.87;;
2053;SDS011;1032;52.542;13.440;2023-04-28T02:48:21;11.03;;;5.93;;
2053;SDS011;1032;52.542;13.440;2023-04-28T02:50:47;13.13;;;6.40;;
2053;SDS011;1032;52.542;13.440;2023-04-28T02:53:14;9.97;;;5.80;;
2053;SDS011;1032;52.542;13.440;2023-04-28T02:55:41;10.73;;;6.03;;
2053;SDS011;1032;52.542;13.440;2023-04-28T02:58:08;8.60;;;5.37;;
2053;SDS011;1032;52.542;13.440;2023-04-28T03:00:34;10.97;;;7.00;;
2053;SDS011;1032;52.542;13.440;2023-04-28T03:03:01;12.20;;;7.10;;
2053;SDS011;1032;52.542;13.440;2023-04-28T03:05:29;10.10;;;6.00;;
2053;SDS011;1032;52.542;13.440;2023-04-28T03:07:56;13.67;;;6.47;;
2053;SDS011;1032;52.542;13.440;2023-04-28T03:10:23;14.27;;;6.60;;
2053;SDS011;1032;52.542;13.440;2023-04-28T03:12:50;11.63;;;5.60;;
2053;SDS011;1032;52.542;13.440;2023-04-28T03:15:16;11.23;;;6.93;;
2053;SDS011;1032;52.542;13.440;2023-04-28T03:17:44;9.73;;;5.40;;
2053;SDS011;1032;52.542;13.440;2023-04-28T03:20:11;10.17;;;5.67;;
2053;SDS011;1032;52.542;13.440;2023-04-28T03:22:39;10.00;;;5.57;;
2053;SDS011;1032;52.542;13.440;2023-04-28T03:25:06;8.17;;;5.77;;
2053;SDS011;1032;52.542;13.440;2023-04-28T03:27:41;9.23;;;5.63;;
2053;SDS011;1032;52.542;13.440;2023-04-28T03:30:08;10.20;;;5.93;;
2053;SDS011;1032;52.542;13.440;2023-04-28T03:32:35;6.80;;;5.10;;
2053;SDS011;1032;52.542;13.440;2023-04-28T03:35:02;8.40;;;5.40;;
2053;SDS011;1032;52.542;13.440;2023-04-28T03:37:29;8.67;;;5.03;;
2053;SDS011;1032;52.542;13.440;2023-04-28T03:39:57;10.20;;;5.67;;
2053;SDS011;1032;52.542;13.440;2023-04-28T03:42:23;12.50;;;5.40;;
2053;SDS011;1032;52.542;13.440;2023-04-28T03:45:05;10.67;;;5.50;;
2053;SDS011;1032;52.542;13.440;2023-04-28T03:47:33;11.33;;;5.73;;
2053;SDS011;1032;52.542;13.440;2023-04-28T03:50:00;7.93;;;5.03;;
2053;SDS011;1032;52.542;13.440;2023-04-28T03:52:26;7.03;;;5.03;;
2053;SDS011;1032;52.542;13.440;2023-04-28T03:54:53;6.57;;;5.00;;
2053;SDS011;1032;52.542;13.440;2023-04-28T03:57:21;12.17;;;5.47;;
2053;SDS011;1032;52.542;13.440;2023-04-28T03:59:49;7.83;;;5.30;;
2053;SDS011;1032;52.542;13.440;2023-04-28T04:02:16;13.43;;;6.37;;
2053;SDS011;1032;52.542;13.440;2023-04-28T04:04:42;9.17;;;5.33;;
2053;SDS011;1032;52.542;13.440;2023-04-28T04:07:09;10.10;;;5.20;;
2053;SDS011;1032;52.542;13.440;2023-04-28T04:09:36;10.80;;;5.07;;
2053;SDS011;1032;52.542;13.440;2023-04-28T04:12:03;9.20;;;5.13;;
2053;SDS011;1032;52.542;13.440;2023-04-28T04:14:32;13.67;;;5.57;;
2053;SDS011;1032;52.542;13.440;2023-04-28T04:16:58;11.03;;;5.17;;
2053;SDS011;1032;52.542;13.440;2023-04-28T04:19:26;14.50;;;5.93;;
2053;SDS011;1032;52.542;13.440;2023-04-28T04:21:53;13.03;;;5.93;;
2053;SDS011;1032;52.542;13.440;2023-04-28T04:24:20;8.17;;;5.57;;
2053;SDS011;1032;52.542;13.440;2023-04-28T04:26:47;9.60;;;5.30;;
2053;SDS011;1032;52.542;13.440;2023-04-28T04:29:26;9.60;;;6.37;;
2053;SDS011;1032;52.542;13.440;2023-04-28T04:31:54;8.40;;;5.27;;
2053;SDS011;1032;52.542;13.440;2023-04-28T04:34:21;8.57;;;5.90;;
2053;SDS011;1032;52.542;13.440;2023-04-28T04:36:47;12.83;;;5.83;;
2053;SDS011;1032;52.542;13.440;2023-04-28T04:39:14;9.27;;;5.60;;
2053;SDS011;1032;52.542;13.440;2023-04-28T04:41:41;13.43;;;7.27;;
2053;SDS011;1032;52.542;13.440;2023-04-28T04:44:26;13.03;;;6.07;;
2053;SDS011;1032;52.542;13.440;2023-04-28T04:46:55;8.10;;;5.47;;
2053;SDS011;1032;52.542;13.440;2023-04-28T04:49:22;10.47;;;6.10;;
2053;SDS011;1032;52.542;13.440;2023-04-28T04:51:50;9.43;;;6.00;;
2053;SDS011;1032;52.542;13.440;2023-04-28T04:54:17;9.13;;;5.50;;
2053;SDS011;1032;52.542;13.440;2023-04-28T04:56:43;14.23;;;6.63;;
2053;SDS011;1032;52.542;13.440;2023-04-28T04:59:13;11.23;;;5.53;;
2053;SDS011;1032;52.542;13.440;2023-04-28T05:01:59;7.17;;;5.43;;
2053;SDS011;1032;52.542;13.440;2023-04-28T05:04:25;11.10;;;5.67;;
2053;SDS011;1032;52.542;13.440;2023-04-28T05:06:53;12.50;;;6.10;;
2053;SDS011;1032;52.542;13.440;2023-04-28T05:09:19;10.70;;;5.13;;
2053;SDS011;1032;52.542;13.440;2023-04-28T05:11:47;16.00;;;7.10;;
2053;SDS011;1032;52.542;13.440;2023-04-28T05:14:15;13.67;;;7.23;;
2053;SDS011;1032;52.542;13.440;2023-04-28T05:16:41;16.17;;;6.10;;
2053;SDS011;1032;52.542;13.440;2023-04-28T05:19:14;7.50;;;4.80;;
2053;SDS011;1032;52.542;13.440;2023-04-28T05:21:41;12.57;;;4.80;;
2053;SDS011;1032;52.542;13.440;2023-04-28T05:24:09;8.43;;;5.50;;
2053;SDS011;1032;52.542;13.440;2023-04-28T05:26:35;9.83;;;5.13;;
2053;SDS011;1032;52.542;13.440;2023-04-28T05:29:06;11.43;;;5.60;;
2053;SDS011;1032;52.542;13.440;2023-04-28T05:31:33;8.83;;;5.60;;
2053;SDS011;1032;52.542;13.440;2023-04-28T05:34:00;10.00;;;6.03;;
2053;SDS011;1032;52.542;13.440;2023-04-28T05:36:28;9.37;;;4.67;;
2053;SDS011;1032;52.542;13.440;2023-04-28T05:38:55;12.37;;;4.90;;
2053;SDS011;1032;52.542;13.440;2023-04-28T05:41:22;7.13;;;4.70;;
2053;SDS011;1032;52.542;13.440;2023-04-28T05:43:49;6.00;;;5.10;;
2053;SDS011;1032;52.542;13.440;2023-04-28T05:46:16;6.03;;;4.70;;
2053;SDS011;1032;52.542;13.440;2023-04-28T05:48:44;9.67;;;4.97;;
2053;SDS011;1032;52.542;13.440;2023-04-28T05:51:11;10.13;;;5.27;;
2053;SDS011;1032;52.542;13.440;2023-04-28T05:53:39;9.50;;;5.40;;
2053;SDS011;1032;52.542;13.440;2023-04-28T05:56:06;9.20;;;5.50;;
2053;SDS011;1032;52.542;13.440;2023-04-28T05:58:33;12.17;;;7.23;;
2053;SDS011;1032;52.542;13.440;2023-04-28T06:01:01;11.20;;;5.07;;
2053;SDS011;1032;52.542;13.440;2023-04-28T06:03:28;7.57;;;4.80;;
2053;SDS011;1032;52.542;13.440;2023-04-28T06:05:54;10.80;;;4.90;;
2053;SDS011;1032;52.542;13.440;2023-04-28T06:08:21;7.80;;;5.40;;
2053;SDS011;1032;52.542;13.440;2023-04-28T06:10:49;12.10;;;6.57;;
2053;SDS011;1032;52.542;13.440;2023-04-28T06:13:18;7.83;;;4.97;;
2053;SDS011;1032;52.542;13.440;2023-04-28T06:15:45;9.13;;;5.40;;
2053;SDS011;1032;52.542;13.440;2023-04-28T06:18:12;10.60;;;5.93;;
2053;SDS011;1032;52.542;13.440;2023-04-28T06:20:40;9.90;;;5.97;;
2053;SDS011;1032;52.542;13.440;2023-04-28T06:23:07;8.40;;;5.40;;
2053;SDS011;1032;52.542;13.440;2023-04-28T06:25:41;9.67;;;5.53;;
2053;SDS011;1032;52.542;13.440;2023-04-28T06:28:09;7.40;;;5.20;;
2053;SDS011;1032;52.542;13.440;2023-04-28T06:30:37;8.20;;;5.70;;
2053;SDS011;1032;52.542;13.440;2023-04-28T06:33:04;9.87;;;5.30;;
2053;SDS011;1032;52.542;13.440;2023-04-28T06:35:30;8.07;;;5.23;;
2053;SDS011;1032;52.542;13.440;2023-04-28T06:37:59;6.87;;;5.07;;
2053;SDS011;1032;52.542;13.440;2023-04-28T06:40:27;6.80;;;4.60;;
2053;SDS011;1032;52.542;13.440;2023-04-28T06:42:56;6.00;;;4.67;;
2053;SDS011;1032;52.542;13.440;2023-04-28T06:45:31;13.63;;;5.83;;
2053;SDS011;1032;52.542;13.440;2023-04-28T06:47:58;8.63;;;5.23;;
2053;SDS011;1032;52.542;13.440;2023-04-28T06:50:25;16.53;;;5.23;;
2053;SDS011;1032;52.542;13.440;2023-04-28T06:52:52;9.37;;;4.87;;
2053;SDS011;1032;52.542;13.440;2023-04-28T06:55:19;7.87;;;5.00;;
2053;SDS011;1032;52.542;13.440;2023-04-28T06:57:46;10.40;;;5.33;;
2053;SDS011;1032;52.542;13.440;2023-04-28T07:00:13;9.97;;;5.10;;
2053;SDS011;1032;52.542;13.440;2023-04-28T07:02:41;8.87;;;4.27;;
2053;SDS011;1032;52.542;13.440;2023-04-28T07:05:08;11.37;;;4.20;;
2053;SDS011;1032;52.542;13.440;2023-04-28T07:07:35;8.17;;;3.83;;
2053;SDS011;1032;52.542;13.440;2023-04-28T07:10:03;6.93;;;3.70;;
2053;SDS011;1032;52.542;13.440;2023-04-28T07:12:30;5.50;;;3.90;;
2053;SDS011;1032;52.542;13.440;2023-04-28T07:14:57;8.60;;;4.30;;
2053;SDS011;1032;52.542;13.440;2023-04-28T07:17:23;7.37;;;4.20;;
2053;SDS011;1032;52.542;13.440;2023-04-28T07:19:51;8.17;;;4.03;;
2053;SDS011;1032;52.542;13.440;2023-04-28T07:22:18;8.67;;;4.10;;
2053;SDS011;1032;52.542;13.440;2023-04-28T07:24:45;15.13;;;5.57;;
2053;SDS011;1032;52.542;13.440;2023-04-28T07:27:11;11.73;;;4.27;;
2053;SDS011;1032;52.542;13.440;2023-04-28T07:29:38;11.27;;;4.40;;
2053;SDS011;1032;52.542;13.440;2023-04-28T07:32:05;7.47;;;4.10;;
2053;SDS011;1032;52.542;13.440;2023-04-28T07:34:32;12.03;;;5.07;;
2053;SDS011;1032;52.542;13.440;2023-04-28T07:37:01;13.43;;;5.00;;
2053;SDS011;1032;52.542;13.440;2023-04-28T07:39:29;8.87;;;4.53;;
2053;SDS011;1032;52.542;13.440;2023-04-28T07:41:56;5.50;;;3.93;;
2053;SDS011;1032;52.542;13.440;2023-04-28T07:44:23;4.23;;;3.80;;
2053;SDS011;1032;52.542;13.440;2023-04-28T07:46:49;5.00;;;4.17;;
2053;SDS011;1032;52.542;13.440;2023-04-28T07:49:16;7.60;;;3.90;;
2053;SDS011;1032;52.542;13.440;2023-04-28T07:51:43;10.30;;;5.07;;
2053;SDS011;1032;52.542;13.440;2023-04-28T07:54:11;6.83;;;4.43;;
2053;SDS011;1032;52.542;13.440;2023-04-28T07:56:38;10.73;;;4.77;;
2053;SDS011;1032;52.542;13.440;2023-04-28T07:59:05;5.70;;;4.13;;
2053;SDS011;1032;52.542;13.440;2023-04-28T08:01:31;8.33;;;4.83;;
2053;SDS011;1032;52.542;13.440;2023-04-28T08:03:58;12.40;;;5.00;;
2053;SDS011;1032;52.542;13.440;2023-04-28T08:06:25;13.33;;;4.40;;
2053;SDS011;1032;52.542;13.440;2023-04-28T08:08:51;6.97;;;4.10;;
2053;SDS011;1032;52.542;13.440;2023-04-28T08:11:19;5.40;;;4.60;;
2053;SDS011;1032;52.542;13.440;2023-04-28T08:13:46;6.80;;;4.30;;
2053;SDS011;1032;52.542;13.440;2023-04-28T08:16:13;6.30;;;3.97;;
2053;SDS011;1032;52.542;13.440;2023-04-28T08:18:40;8.60;;;4.37;;
2053;SDS011;1032;52.542;13.440;2023-04-28T08:21:06;6.80;;;4.40;;
2053;SDS011;1032;52.542;13.440;2023-04-28T08:23:33;5.27;;;4.23;;
2053;SDS011;1032;52.542;13.440;2023-04-28T08:26:00;7.97;;;4.13;;
2053;SDS011;1032;52.542;13.440;2023-04-28T08:28:28;10.70;;;4.43;;
2053;SDS011;1032;52.542;13.440;2023-04-28T08:30:55;8.93;;;4.60;;
2053;SDS011;1032;52.542;13.440;2023-04-28T08:33:22;9.40;;;4.60;;
2053;SDS011;1032;52.542;13.440;2023-04-28T08:35:49;6.40;;;4.87;;
2053;SDS011;1032;52.542;13.440;2023-04-28T08:38:16;8.90;;;4.20;;
2053;SDS011;1032;52.542;13.440;2023-04-28T08:40:42;9.23;;;4.30;;
2053;SDS011;1032;52.542;13.440;2023-04-28T08:43:09;11.83;;;5.00;;
2053;SDS011;1032;52.542;13.440;2023-04-28T08:45:39;8.40;;;4.20;;
2053;SDS011;1032;52.542;13.440;2023-04-28T08:48:08;8.07;;;5.20;;
2053;SDS011;1032;52.542;13.440;2023-04-28T08:50:47;7.87;;;4.60;;
2053;SDS011;1032;52.542;13.440;2023-04-28T08:53:15;15.43;;;4.20;;
2053;SDS011;1032;52.542;13.440;2023-04-28T08:55:47;9.30;;;4.17;;
2053;SDS011;1032;52.542;13.440;2023-04-28T08:58:15;12.60;;;4.20;;
2053;SDS011;1032;52.542;13.440;2023-04-28T09:00:44;9.10;;;4.40;;
2053;SDS011;1032;52.542;13.440;2023-04-28T09:03:10;9.23;;;4.43;;
2053;SDS011;1032;52.542;13.440;2023-04-28T09:05:37;6.70;;;3.93;;
2053;SDS011;1032;52.542;13.440;2023-04-28T09:08:04;7.03;;;4.40;;
2053;SDS011;1032;52.542;13.440;2023-04-28T09:10:30;8.03;;;4.50;;
2053;SDS011;1032;52.542;13.440;2023-04-28T09:12:57;7.37;;;4.20;;
2053;SDS011;1032;52.542;13.440;2023-04-28T09:15:24;7.60;;;4.27;;
2053;SDS011;1032;52.542;13.440;2023-04-28T09:17:54;8.80;;;4.67;;
2053;SDS011;1032;52.542;13.440;2023-04-28T09:20:21;5.93;;;4.57;;
2053;SDS011;1032;52.542;13.440;2023-04-28T09:22:48;7.73;;;4.60;;
2053;SDS011;1032;52.542;13.440;2023-04-28T09:25:16;7.60;;;4.23;;
2053;SDS011;1032;52.542;13.440;2023-04-28T09:27:43;5.07;;;4.37;;
2053;SDS011;1032;52.542;13.440;2023-04-28T09:30:10;15.10;;;4.93;;
2053;SDS011;1032;52.542;13.440;2023-04-28T09:32:37;8.70;;;5.10;;
2053;SDS011;1032;52.542;13.440;2023-04-28T09:35:05;8.83;;;5.60;;
2053;SDS011;1032;52.542;13.440;2023-04-28T09:37:33;6.83;;;4.83;;
2053;SDS011;1032;52.542;13.440;2023-04-28T09:40:04;8.37;;;4.80;;
2053;SDS011;1032;52.542;13.440;2023-04-28T09:42:33;7.93;;;5.20;;
2053;SDS011;1032;52.542;13.440;2023-04-28T09:45:01;9.30;;;5.20;;
2053;SDS011;1032;52.542;13.440;2023-04-28T09:47:28;6.60;;;4.83;;
2053;SDS011;1032;52.542;13.440;2023-04-28T09:49:57;14.13;;;5.63;;
2053;SDS011;1032;52.542;13.440;2023-04-28T09:52:26;8.63;;;4.70;;
2053;SDS011;1032;52.542;13.440;2023-04-28T09:54:53;7.30;;;5.30;;
2053;SDS011;1032;52.542;13.440;2023-04-28T09:57:22;9.60;;;5.03;;
2053;SDS011;1032;52.542;13.440;2023-04-28T09:59:49;8.33;;;5.67;;
2053;SDS011;1032;52.542;13.440;2023-04-28T10:02:17;9.53;;;5.10;;
2053;SDS011;1032;52.542;13.440;2023-04-28T10:04:45;5.70;;;4.87;;
2053;SDS011;1032;52.542;13.440;2023-04-28T10:07:13;9.37;;;5.40;;
2053;SDS011;1032;52.542;13.440;2023-04-28T10:09:41;9.37;;;5.10;;
2053;SDS011;1032;52.542;13.440;2023-04-28T10:12:12;7.73;;;5.73;;
2053;SDS011;1032;52.542;13.440;2023-04-28T10:14:39;13.10;;;6.13;;
2053;SDS011;1032;52.542;13.440;2023-04-28T10:17:06;7.90;;;5.60;;
2053;SDS011;1032;52.542;13.440;2023-04-28T10:19:33;7.82;;;5.30;;
2053;SDS011;1032;52.542;13.440;2023-04-28T10:22:04;8.30;;;5.60;;
2053;SDS011;1032;52.542;13.440;2023-04-28T10:24:49;9.50;;;5.23;;
2053;SDS011;1032;52.542;13.440;2023-04-28T10:27:29;9.13;;;6.00;;
2053;SDS011;1032;52.542;13.440;2023-04-28T10:30:10;12.30;;;5.17;;
2053;SDS011;1032;52.542;13.440;2023-04-28T10:32:38;7.43;;;5.40;;
2053;SDS011;1032;52.542;13.440;2023-04-28T10:38:09;6.90;;;5.80;;
2053;SDS011;1032;52.542;13.440;2023-04-28T10:40:40;9.27;;;6.10;;
2053;SDS011;1032;52.542;13.440;2023-04-28T10:43:09;10.93;;;5.00;;
2053;SDS011;1032;52.542;13.440;2023-04-28T10:51:20;8.30;;;4.67;;
2053;SDS011;1032;52.542;13.440;2023-04-28T10:59:43;7.83;;;5.67;;
2053;SDS011;1032;52.542;13.440;2023-04-28T11:05:13;7.90;;;4.97;;
2053;SDS011;1032;52.542;13.440;2023-04-28T11:11:16;8.37;;;4.50;;
2053;SDS011;1032;52.542;13.440;2023-04-28T11:13:48;8.17;;;6.90;;
2053;SDS011;1032;52.542;13.440;2023-04-28T11:16:16;9.80;;;4.57;;
2053;SDS011;1032;52.542;13.440;2023-04-28T11:18:48;6.53;;;5.10;;
2053;SDS011;1032;52.542;13.440;2023-04-28T11:21:27;8.97;;;4.67;;
2053;SDS011;1032;52.542;13.440;2023-04-28T11:23:54;7.17;;;5.03;;
2053;SDS011;1032;52.542;13.440;2023-04-28T11:26:22;8.73;;;4.97;;
2053;SDS011;1032;52.542;13.440;2023-04-28T11:28:51;8.67;;;4.90;;
2053;SDS011;1032;52.542;13.440;2023-04-28T11:31:19;10.90;;;4.87;;
2053;SDS011;1032;52.542;13.440;2023-04-28T11:33:52;6.57;;;4.83;;
2053;SDS011;1032;52.542;13.440;2023-04-28T11:36:26;10.87;;;5.53;;
2053;SDS011;1032;52.542;13.440;2023-04-28T11:38:56;8.57;;;5.47;;
2053;SDS011;1032;52.542;13.440;2023-04-28T11:41:22;11.73;;;5.30;;
2053;SDS011;1032;52.542;13.440;2023-04-28T11:43:50;8.23;;;5.20;;
2053;SDS011;1032;52.542;13.440;2023-04-28T11:46:18;23.70;;;5.90;;
2053;SDS011;1032;52.542;13.440;2023-04-28T11:48:47;7.50;;;5.20;;
2053;SDS011;1032;52.542;13.440;2023-04-28T11:51:28;7.10;;;5.07;;
2053;SDS011;1032;52.542;13.440;2023-04-28T11:53:59;7.90;;;5.00;;
2053;SDS011;1032;52.542;13.440;2023-04-28T11:56:26;7.43;;;4.90;;
2053;SDS011;1032;52.542;13.440;2023-04-28T11:59:04;8.77;;;4.87;;
2053;SDS011;1032;52.542;13.440;2023-04-28T12:01:32;10.43;;;5.90;;
2053;SDS011;1032;52.542;13.440;2023-04-28T12:04:01;10.33;;;5.60;;
2053;SDS011;1032;52.542;13.440;2023-04-28T12:06:28;15.57;;;6.20;;
2053;SDS011;1032;52.542;13.440;2023-04-28T12:08:55;8.60;;;5.83;;
2053;SDS011;1032;52.542;13.440;2023-04-28T12:11:26;7.73;;;5.77;;
2053;SDS011;1032;52.542;13.440;2023-04-28T12:14:03;13.40;;;6.17;;
2053;SDS011;1032;52.542;13.440;2023-04-28T12:16:42;8.90;;;5.70;;
2053;SDS011;1032;52.542;13.440;2023-04-28T12:19:11;8.23;;;5.50;;
2053;SDS011;1032;52.542;13.440;2023-04-28T12:21:39;12.27;;;6.10;;
2053;SDS011;1032;52.542;13.440;2023-04-28T12:24:13;10.00;;;6.37;;
2053;SDS011;1032;52.542;13.440;2023-04-28T12:26:40;12.00;;;6.50;;
2053;SDS011;1032;52.542;13.440;2023-04-28T12:29:09;7.30;;;6.00;;
2053;SDS011;1032;52.542;13.440;2023-04-28T12:31:56;15.70;;;6.47;;
2053;SDS011;1032;52.542;13.440;2023-04-28T12:34:22;7.60;;;6.03;;
2053;SDS011;1032;52.542;13.440;2023-04-28T12:36:49;20.33;;;6.90;;
2053;SDS011;1032;52.542;13.440;2023-04-28T12:39:16;8.03;;;5.93;;
2053;SDS011;1032;52.542;13.440;2023-04-28T12:41:44;14.57;;;7.00;;
2053;SDS011;1032;52.542;13.440;2023-04-28T12:44:12;12.30;;;5.93;;
2053;SDS011;1032;52.542;13.440;2023-04-28T12:46:39;11.53;;;6.37;;
2053;SDS011;1032;52.542;13.440;2023-04-28T12:49:06;8.50;;;5.93;;
2053;SDS011;1032;52.542;13.440;2023-04-28T12:51:33;8.67;;;5.93;;
2053;SDS011;1032;52.542;13.440;2023-04-28T12:53:59;6.73;;;5.93;;
2053;SDS011;1032;52.542;13.440;2023-04-28T12:56:27;8.17;;;5.60;;
2053;SDS011;1032;52.542;13.440;2023-04-28T12:58:54;9.40;;;6.83;;
2053;SDS011;1032;52.542;13.440;2023-04-28T13:01:22;8.73;;;6.10;;
2053;SDS011;1032;52.542;13.440;2023-04-28T13:03:49;8.20;;;5.53;;
2053;SDS011;1032;52.542;13.440;2023-04-28T13:06:17;13.80;;;6.10;;
2053;SDS011;1032;52.542;13.440;2023-04-28T13:08:44;8.30;;;5.90;;
2053;SDS011;1032;52.542;13.440;2023-04-28T13:11:11;8.60;;;6.27;;
2053;SDS011;1032;52.542;13.440;2023-04-28T13:13:37;8.20;;;5.57;;
2053;SDS011;1032;52.542;13.440;2023-04-28T13:16:05;7.93;;;6.30;;
2053;SDS011;1032;52.542;13.440;2023-04-28T13:18:33;9.20;;;7.07;;
2053;SDS011;1032;52.542;13.440;2023-04-28T13:21:00;6.93;;;5.17;;
2053;SDS011;1032;52.542;13.440;2023-04-28T13:23:26;9.70;;;6.03;;
2053;SDS011;1032;52.542;13.440;2023-04-28T13:25:53;21.00;;;7.77;;
2053;SDS011;1032;52.542;13.440;2023-04-28T13:28:20;7.77;;;5.53;;
2053;SDS011;1032;52.542;13.440;2023-04-28T13:30:46;7.23;;;5.33;;
2053;SDS011;1032;52.542;13.440;2023-04-28T13:33:13;8.70;;;5.30;;
2053;SDS011;1032;52.542;13.440;2023-04-28T13:35:41;6.67;;;5.13;;
2053;SDS011;1032;52.542;13.440;2023-04-28T13:38:08;9.50;;;5.60;;
2053;SDS011;1032;52.542;13.440;2023-04-28T13:40:35;7.70;;;5.87;;
2053;SDS011;1032;52.542;13.440;2023-04-28T13:43:01;7.90;;;5.20;;
2053;SDS011;1032;52.542;13.440;2023-04-28T13:45:29;13.63;;;5.90;;
2053;SDS011;1032;52.542;13.440;2023-04-28T13:47:56;8.93;;;6.30;;
2053;SDS011;1032;52.542;13.440;2023-04-28T13:50:23;10.00;;;5.90;;
2053;SDS011;1032;52.542;13.440;2023-04-28T13:52:51;8.83;;;5.80;;
2053;SDS011;1032;52.542;13.440;2023-04-28T13:55:18;6.40;;;5.67;;
2053;SDS011;1032;52.542;13.440;2023-04-28T13:57:51;8.20;;;5.70;;
2053;SDS011;1032;52.542;13.440;2023-04-28T14:00:18;11.17;;;5.40;;
2053;SDS011;1032;52.542;13.440;2023-04-28T14:02:45;9.70;;;5.37;;
2053;SDS011;1032;52.542;13.440;2023-04-28T14:05:13;10.03;;;5.87;;
2053;SDS011;1032;52.542;13.440;2023-04-28T14:07:41;9.33;;;5.60;;
2053;SDS011;1032;52.542;13.440;2023-04-28T14:10:10;14.60;;;6.93;;
2053;SDS011;1032;52.542;13.440;2023-04-28T14:12:36;8.80;;;7.37;;
2053;SDS011;1032;52.542;13.440;2023-04-28T14:15:03;10.37;;;7.33;;
2053;SDS011;1032;52.542;13.440;2023-04-28T14:17:30;8.80;;;7.00;;
2053;SDS011;1032;52.542;13.440;2023-04-28T14:19:58;7.70;;;5.90;;
2053;SDS011;1032;52.542;13.440;2023-04-28T14:22:25;10.13;;;7.23;;
2053;SDS011;1032;52.542;13.440;2023-04-28T14:24:52;10.53;;;6.10;;
2053;SDS011;1032;52.542;13.440;2023-04-28T14:27:20;10.57;;;6.67;;
2053;SDS011;1032;52.542;13.440;2023-04-28T14:29:47;11.07;;;7.37;;
2053;SDS011;1032;52.542;13.440;2023-04-28T14:32:13;9.53;;;7.23;;
2053;SDS011;1032;52.542;13.440;2023-04-28T14:34:44;9.10;;;5.63;;
2053;SDS011;1032;52.542;13.440;2023-04-28T14:37:12;13.43;;;6.33;;
2053;SDS011;1032;52.542;13.440;2023-04-28T14:39:38;10.47;;;5.77;;
2053;SDS011;1032;52.542;13.440;2023-04-28T14:42:05;9.17;;;6.43;;
2053;SDS011;1032;52.542;13.440;2023-04-28T14:44:33;9.17;;;5.63;;
2053;SDS011;1032;52.542;13.440;2023-04-28T14:47:00;11.57;;;6.03;;
2053;SDS011;1032;52.542;13.440;2023-04-28T14:49:27;10.93;;;6.60;;
2053;SDS011;1032;52.542;13.440;2023-04-28T14:51:54;8.47;;;5.80;;
2053;SDS011;1032;52.542;13.440;2023-04-28T14:54:21;12.20;;;6.30;;
2053;SDS011;1032;52.542;13.440;2023-04-28T14:56:48;7.50;;;5.30;;
2053;SDS011;1032;52.542;13.440;2023-04-28T14:59:15;8.70;;;6.10;;
2053;SDS011;1032;52.542;13.440;2023-04-28T15:01:44;7.30;;;5.23;;
2053;SDS011;1032;52.542;13.440;2023-04-28T15:04:11;6.20;;;5.47;;
2053;SDS011;1032;52.542;13.440;2023-04-28T15:06:37;8.97;;;5.93;;
2053;SDS011;1032;52.542;13.440;2023-04-28T15:09:04;10.93;;;6.33;;
2053;SDS011;1032;52.542;13.440;2023-04-28T15:11:31;12.37;;;5.83;;
2053;SDS011;1032;52.542;13.440;2023-04-28T15:13:57;30.43;;;7.60;;
2053;SDS011;1032;52.542;13.440;2023-04-28T15:16:24;7.80;;;6.07;;
2053;SDS011;1032;52.542;13.440;2023-04-28T15:18:52;9.00;;;6.33;;
2053;SDS011;1032;52.542;13.440;2023-04-28T15:21:19;7.10;;;5.37;;